Time;durP1;ratioP1;P1;durP2;ratioP2;P2;SDS_P1;SDS_P2;PMS_P1;PMS_P2;Temp;Humidity;BMP_temperature;BMP_pressure;BME280_temperature;BME280_humidity;BME280_pressure;Samples;Min_cycle;Max_cycle;Signal;HPM_P1;HPM_P2
2021/09/04 00:02:11;;;;;;;18.17;10.20;;;13.90;1.00;;;;;;5031883;28;20817;-80
2021/09/04 00:04:58;;;;;;;13.80;9.73;;;13.90;1.00;;;;;;5033716;28;20825;-80
2021/09/04 00:07:30;;;;;;;15.07;10.40;;;13.90;1.00;;;;;;5033959;28;20397;-80
2021/09/04 00:09:56;;;;;;;25.70;10.60;;;13.90;1.00;;;;;;5033855;28;20429;-77
2021/09/04 00:12:40;;;;;;;23.07;10.33;;;13.90;1.00;;;;;;5034767;28;20395;-77
2021/09/04 00:15:06;;;;;;;15.33;9.60;;;13.80;1.00;;;;;;5032763;28;20392;-76
2021/09/04 00:17:40;;;;;;;19.47;10.20;;;13.90;1.00;;;;;;5024999;28;20408;-76
2021/09/04 00:20:07;;;;;;;18.13;9.60;;;13.90;1.00;;;;;;5021646;28;20942;-76
2021/09/04 00:22:40;;;;;;;14.97;10.23;;;13.90;1.00;;;;;;5034008;28;20415;-76
2021/09/04 00:25:28;;;;;;;17.90;9.93;;;13.90;1.00;;;;;;5021573;28;20412;-80
2021/09/04 00:28:04;;;;;;;18.13;10.27;;;13.90;1.00;;;;;;5032729;28;20427;-80
2021/09/04 00:30:52;;;;;;;15.80;10.20;;;13.90;1.00;;;;;;5034364;28;20414;-80
2021/09/04 00:33:40;;;;;;;17.93;10.60;;;13.80;1.00;;;;;;5033354;28;20419;-80
2021/09/04 00:36:22;;;;;;;23.70;9.53;;;13.80;1.00;;;;;;5033955;28;20441;-80
2021/09/04 00:38:58;;;;;;;14.23;9.70;;;13.80;1.00;;;;;;5031203;28;20434;-79
2021/09/04 00:41:52;;;;;;;16.30;9.57;;;13.80;1.00;;;;;;5014216;28;20454;-76
2021/09/04 00:44:23;;;;;;;21.57;10.50;;;13.80;1.00;;;;;;5013930;28;20442;-76
2021/09/04 00:46:49;;;;;;;15.40;9.70;;;13.80;1.00;;;;;;5014878;28;20435;-76
2021/09/04 00:49:15;;;;;;;18.33;10.23;;;13.80;1.00;;;;;;5033916;28;20406;-76
2021/09/04 00:51:46;;;;;;;18.17;10.40;;;13.70;1.00;;;;;;5033786;28;20395;-76
2021/09/04 00:54:16;;;;;;;14.30;9.70;;;13.70;1.00;;;;;;5032725;28;20513;-76
2021/09/04 00:56:42;;;;;;;15.73;10.17;;;13.70;1.00;;;;;;5032877;28;20443;-77
2021/09/04 00:59:24;;;;;;;18.20;11.23;;;13.70;1.00;;;;;;5033742;28;20906;-77
2021/09/04 01:01:52;;;;;;;19.63;9.83;;;13.70;1.00;;;;;;5033453;28;20615;-76
2021/09/04 01:04:18;;;;;;;15.57;9.87;;;13.70;1.00;;;;;;5033802;28;20388;-76
2021/09/04 01:07:04;;;;;;;16.40;10.17;;;13.60;1.00;;;;;;5032937;28;20816;-76
2021/09/04 01:09:33;;;;;;;20.37;12.03;;;13.60;1.00;;;;;;5034054;28;20168;-76
2021/09/04 01:12:16;;;;;;;19.40;11.50;;;13.60;1.00;;;;;;5018358;28;20412;-81
2021/09/04 01:14:42;;;;;;;22.50;11.13;;;13.60;1.00;;;;;;5013364;28;20408;-80
2021/09/04 01:17:40;;;;;;;19.50;10.10;;;13.60;1.00;;;;;;5023950;28;20421;-80
2021/09/04 01:20:22;;;;;;;16.10;10.20;;;13.50;1.00;;;;;;5013389;28;20216;-80
2021/09/04 01:22:52;;;;;;;18.37;10.27;;;13.50;1.00;;;;;;5028904;28;20906;-80
2021/09/04 01:25:25;;;;;;;16.40;10.00;;;13.50;1.00;;;;;;5033706;28;20413;-80
2021/09/04 01:28:16;;;;;;;19.20;10.40;;;13.50;1.00;;;;;;5032595;28;20427;-80
2021/09/04 01:30:47;;;;;;;19.33;9.80;;;13.40;1.00;;;;;;5033474;28;20414;-80
2021/09/04 01:33:16;;;;;;;15.80;10.20;;;13.40;1.00;;;;;;5033171;28;20381;-80
2021/09/04 01:35:58;;;;;;;23.70;11.37;;;13.40;1.00;;;;;;5033236;28;20395;-80
2021/09/04 01:38:40;;;;;;;19.97;10.07;;;13.40;1.00;;;;;;5032853;28;20802;-80
2021/09/04 01:41:10;;;;;;;21.03;9.97;;;13.40;1.00;;;;;;5033277;28;20459;-80
2021/09/04 01:43:52;;;;;;;15.17;9.57;;;13.40;1.00;;;;;;5033137;28;20867;-80
2021/09/04 01:46:23;;;;;;;17.43;10.00;;;13.40;1.00;;;;;;5034744;28;20472;-80
2021/09/04 01:49:22;;;;;;;18.47;10.00;;;13.30;1.00;;;;;;5020321;28;20412;-80
2021/09/04 01:51:52;;;;;;;16.90;9.87;;;13.30;1.00;;;;;;5028750;28;20787;-80
2021/09/04 01:54:52;;;;;;;14.43;9.83;;;13.30;1.00;;;;;;5036527;28;20418;-80
2021/09/04 01:57:19;;;;;;;15.13;9.90;;;13.30;1.00;;;;;;5019630;28;20385;-76
2021/09/04 01:59:47;;;;;;;17.13;10.93;;;13.30;1.00;;;;;;5036779;28;20362;-76
2021/09/04 02:02:14;;;;;;;17.60;9.70;;;13.30;1.00;;;;;;5035665;28;20455;-76
2021/09/04 02:04:39;;;;;;;15.80;9.60;;;13.30;1.00;;;;;;5036661;28;20458;-76
2021/09/04 02:07:34;;;;;;;16.03;9.70;;;13.30;1.00;;;;;;5034600;28;20832;-76
2021/09/04 02:10:11;;;;;;;15.10;9.20;;;13.20;1.00;;;;;;5016598;28;20169;-79
2021/09/04 02:12:37;;;;;;;19.37;9.10;;;13.20;1.00;;;;;;5016482;28;20901;-76
2021/09/04 02:15:06;;;;;;;14.63;9.20;;;13.20;1.00;;;;;;5016083;28;20479;-76
2021/09/04 02:17:40;;;;;;;18.07;9.80;;;13.20;1.00;;;;;;5027833;28;20418;-76
2021/09/04 02:20:34;;;;;;;21.37;9.40;;;13.20;1.00;;;;;;5029677;28;20427;-76
2021/09/04 02:23:10;;;;;;;15.30;9.77;;;13.20;1.00;;;;;;5016413;28;20384;-76
2021/09/04 02:25:41;;;;;;;18.90;9.63;;;13.20;1.00;;;;;;5027023;28;20503;-77
2021/09/04 02:28:11;;;;;;;16.43;9.60;;;13.10;1.00;;;;;;5028717;28;20918;-76
2021/09/04 02:30:41;;;;;;;14.47;9.10;;;13.10;1.00;;;;;;5017774;28;20470;-76
2021/09/04 02:33:22;;;;;;;14.97;9.40;;;13.10;1.00;;;;;;5015914;28;20957;-76
2021/09/04 02:35:58;;;;;;;14.33;9.53;;;13.10;1.00;;;;;;5016294;28;20839;-76
2021/09/04 02:39:04;;;;;;;22.87;9.83;;;13.10;1.00;;;;;;5027403;28;20413;-76
2021/09/04 02:41:29;;;;;;;16.63;9.57;;;13.00;1.00;;;;;;5036261;28;20758;-76
2021/09/04 02:43:58;;;;;;;18.70;10.73;;;13.10;1.00;;;;;;5034970;28;20411;-76
2021/09/04 02:46:24;;;;;;;17.47;10.27;;;13.00;1.00;;;;;;5035620;28;20180;-76
2021/09/04 02:48:50;;;;;;;19.40;9.20;;;13.00;1.00;;;;;;5034861;28;20411;-76
2021/09/04 02:51:15;;;;;;;18.40;9.60;;;13.00;1.00;;;;;;5035415;28;20164;-76
2021/09/04 02:53:46;;;;;;;16.17;9.70;;;13.00;1.00;;;;;;5035193;28;20164;-76
2021/09/04 02:56:16;;;;;;;14.63;9.73;;;13.00;1.00;;;;;;5035111;28;20168;-80
2021/09/04 02:58:46;;;;;;;15.80;8.93;;;13.00;1.00;;;;;;5034616;28;20502;-80
2021/09/04 03:01:12;;;;;;;13.77;9.30;;;12.90;1.00;;;;;;5034574;28;20844;-80
2021/09/04 03:03:38;;;;;;;18.67;10.30;;;;;;;;;;5034419;28;20391;-80
2021/09/04 03:06:04;;;;;;;14.50;9.60;;;12.90;1.00;;;;;;5034368;28;20631;-80
2021/09/04 03:09:10;;;;;;;17.63;9.93;;;12.90;1.00;;;;;;5036027;28;20435;-80
2021/09/04 03:11:46;;;;;;;13.73;9.97;;;12.90;1.00;;;;;;5034211;28;20422;-77
2021/09/04 03:14:16;;;;;;;15.60;9.70;;;12.80;1.00;;;;;;5034798;28;20470;-76
2021/09/04 03:17:10;;;;;;;18.63;10.33;;;12.80;1.00;;;;;;5028752;28;20472;-76
2021/09/04 03:19:40;;;;;;;15.73;8.70;;;12.80;1.00;;;;;;5031524;28;20427;-76
2021/09/04 03:22:22;;;;;;;15.70;9.60;;;12.90;1.00;;;;;;5015420;28;20483;-76
2021/09/04 03:24:48;;;;;;;14.10;8.87;;;12.80;1.00;;;;;;5015309;28;20412;-76
2021/09/04 03:27:14;;;;;;;15.00;9.70;;;12.80;1.00;;;;;;5015392;28;20436;-77
2021/09/04 03:29:46;;;;;;;16.77;10.03;;;12.70;1.00;;;;;;5033821;28;20665;-76
2021/09/04 03:32:58;;;;;;;16.70;10.37;;;12.70;1.00;;;;;;5033473;28;20605;-76
2021/09/04 03:35:23;;;;;;;15.87;9.77;;;12.70;1.00;;;;;;5035241;28;20402;-76
2021/09/04 03:37:49;;;;;;;16.90;10.37;;;12.70;1.00;;;;;;5034544;28;20408;-76
2021/09/04 03:40:16;;;;;;;20.73;10.30;;;12.70;1.00;;;;;;5033178;28;20204;-76
2021/09/04 03:42:52;;;;;;;18.40;9.90;;;12.60;1.00;;;;;;5034480;28;20263;-76
2021/09/04 03:45:22;;;;;;;15.00;9.70;;;12.60;1.00;;;;;;5033305;28;20403;-76
2021/09/04 03:47:48;;;;;;;26.13;10.17;;;12.60;1.00;;;;;;5034069;28;20840;-76
2021/09/04 03:50:14;;;;;;;14.67;9.53;;;12.60;1.00;;;;;;5030064;28;20428;-76
2021/09/04 03:52:40;;;;;;;16.43;10.17;;;12.60;1.00;;;;;;5014654;28;20207;-76
2021/09/04 03:55:10;;;;;;;20.50;10.60;;;12.60;1.00;;;;;;5013197;28;20631;-77
2021/09/04 03:57:36;;;;;;;15.93;9.50;;;12.50;1.00;;;;;;5014715;28;20427;-80
2021/09/04 04:00:03;;;;;;;18.13;9.20;;;12.50;1.00;;;;;;5013847;28;20502;-80
2021/09/04 04:02:29;;;;;;;17.17;9.17;;;;;;;;;;5014867;28;20161;-80
2021/09/04 04:04:56;;;;;;;18.23;9.40;;;;;;;;;;5033080;28;20952;-80
2021/09/04 04:07:22;;;;;;;20.33;10.47;;;12.50;1.00;;;;;;5031989;28;20522;-80
2021/09/04 04:09:47;;;;;;;15.10;9.73;;;12.40;1.00;;;;;;5031758;28;20941;-80
2021/09/04 04:12:13;;;;;;;16.47;10.47;;;12.40;1.00;;;;;;5033666;28;20492;-80
2021/09/04 04:14:39;;;;;;;20.07;10.53;;;12.40;1.00;;;;;;5031677;28;20643;-80
2021/09/04 04:17:10;;;;;;;16.80;10.33;;;12.40;1.00;;;;;;5023688;28;20180;-80
2021/09/04 04:20:16;;;;;;;15.87;10.37;;;12.40;1.00;;;;;;5030850;28;20477;-80
2021/09/04 04:23:04;;;;;;;17.23;10.27;;;12.40;1.00;;;;;;5018293;28;20956;-80
2021/09/04 04:25:52;;;;;;;19.10;10.13;;;12.30;1.00;;;;;;5032738;28;20399;-80
2021/09/04 04:28:28;;;;;;;17.80;10.17;;;12.30;1.00;;;;;;5034125;28;20433;-80
2021/09/04 04:31:40;;;;;;;14.60;9.23;;;12.30;1.00;;;;;;5033345;28;20418;-80
2021/09/04 04:34:40;;;;;;;20.20;10.17;;;12.30;1.00;;;;;;5032965;28;20449;-80
2021/09/04 04:37:28;;;;;;;20.70;10.47;;;12.20;1.00;;;;;;5033514;28;20406;-80
2021/09/04 04:40:22;;;;;;;17.77;10.50;;;12.20;1.00;;;;;;5024432;28;20436;-80
2021/09/04 04:42:58;;;;;;;17.30;10.50;;;12.10;1.00;;;;;;5014308;28;20397;-80
2021/09/04 04:45:40;;;;;;;17.83;9.90;;;12.20;1.00;;;;;;5013826;28;20870;-80
2021/09/04 04:48:18;;;;;;;16.77;10.17;;;12.20;1.00;;;;;;5013754;28;20923;-80
2021/09/04 04:51:10;;;;;;;18.50;10.00;;;12.20;1.00;;;;;;5029234;28;20415;-80
2021/09/04 04:53:40;;;;;;;19.10;10.67;;;12.10;1.00;;;;;;5032282;28;20447;-80
2021/09/04 04:56:16;;;;;;;19.73;10.40;;;12.10;1.00;;;;;;5033611;28;20423;-80
2021/09/04 04:58:46;;;;;;;18.33;10.87;;;12.10;1.00;;;;;;5033639;28;20387;-80
2021/09/04 05:01:22;;;;;;;18.97;10.33;;;12.10;1.00;;;;;;5032707;28;20969;-80
2021/09/04 05:04:04;;;;;;;15.00;9.70;;;12.10;1.00;;;;;;5033142;28;20854;-80
2021/09/04 05:06:30;;;;;;;18.80;10.97;;;12.20;1.00;;;;;;5031208;28;20409;-80
2021/09/04 05:08:58;;;;;;;19.10;11.00;;;12.20;1.00;;;;;;5033793;28;20375;-80
2021/09/04 05:12:04;;;;;;;16.63;10.73;;;12.20;1.00;;;;;;5032538;28;20172;-80
2021/09/04 05:14:40;;;;;;;16.83;10.47;;;12.20;1.00;;;;;;5033175;28;20478;-80
2021/09/04 05:17:06;;;;;;;18.00;10.30;;;12.20;1.00;;;;;;5027198;28;20413;-80
2021/09/04 05:19:34;;;;;;;14.50;10.00;;;12.30;1.00;;;;;;5019174;28;20423;-80
2021/09/04 05:22:00;;;;;;;18.13;10.53;;;12.30;1.00;;;;;;5017340;28;20181;-80
2021/09/04 05:24:34;;;;;;;19.50;10.77;;;12.30;1.00;;;;;;5032426;28;20427;-80
2021/09/04 05:27:00;;;;;;;19.40;10.60;;;12.30;1.00;;;;;;5017476;28;20188;-79
2021/09/04 05:30:04;;;;;;;24.87;11.67;;;12.40;1.00;;;;;;5018251;28;20547;-80
2021/09/04 05:32:40;;;;;;;16.07;9.90;;;12.40;1.00;;;;;;5036921;28;20203;-80
2021/09/04 05:35:10;;;;;;;17.50;10.93;;;12.50;1.00;;;;;;5036866;28;20795;-80
2021/09/04 05:37:42;;;;;;;18.00;10.33;;;12.50;1.00;;;;;;5036042;28;20403;-80
2021/09/04 05:40:11;;;;;;;16.93;10.40;;;12.60;1.00;;;;;;5036204;28;20768;-81
2021/09/04 05:42:52;;;;;;;19.97;11.50;;;12.60;1.00;;;;;;5036995;28;20404;-79
2021/09/04 05:45:28;;;;;;;19.37;10.83;;;12.70;1.00;;;;;;5036831;28;20415;-80
2021/09/04 05:58:00;;;;;;;16.30;9.90;;;12.90;1.00;;;;;;5017494;28;20383;-84
2021/09/04 06:01:04;;;;;;;15.47;10.33;;;13.00;1.00;;;;;;5018908;28;20459;-84
2021/09/04 06:03:40;;;;;;;15.53;9.83;;;13.00;1.00;;;;;;5016093;28;20208;-84
2021/09/04 06:06:52;;;;;;;16.23;10.40;;;13.10;1.00;;;;;;5023351;28;20415;-84
2021/09/04 06:09:40;;;;;;;15.80;10.13;;;13.30;1.00;;;;;;5036543;28;20402;-84
2021/09/04 06:15:34;;;;;;;17.43;10.53;;;13.50;1.00;;;;;;5035387;28;20402;-84
2021/09/04 06:18:46;;;;;;;18.97;11.40;;;13.60;1.00;;;;;;5027271;28;20989;-84
2021/09/04 06:27:56;;;;;;;15.80;9.10;;;;;;;;;;5016583;28;20471;-84
2021/09/04 06:30:40;;;;;;;27.93;14.80;;;14.00;1.00;;;;;;5015565;28;20428;-84
2021/09/04 06:33:11;;;;;;;23.17;11.97;;;;;;;;;;5034337;28;20469;-84
2021/09/04 06:36:04;;;;;;;18.27;11.00;;;14.20;1.00;;;;;;5035838;28;20422;-84
2021/09/04 06:38:30;;;;;;;24.37;14.57;;;14.30;1.00;;;;;;5015111;28;20422;-84
2021/09/04 06:40:58;;;;;;;19.20;13.03;;;14.50;1.00;;;;;;5015255;28;20550;-84
2021/09/04 06:43:24;;;;;;;20.50;11.60;;;14.60;1.00;;;;;;5033082;28;20172;-89
2021/09/04 06:46:10;;;;;;;28.17;13.00;;;14.70;1.00;;;;;;5032957;28;20461;-89
2021/09/04 06:49:10;;;;;;;21.77;11.53;;;14.90;1.00;;;;;;5015136;28;20303;-88
2021/09/04 06:51:52;;;;;;;18.07;11.43;;;15.00;1.00;;;;;;5015403;28;20499;-90
2021/09/04 06:54:40;;;;;;;18.60;11.20;;;15.20;1.00;;;;;;5015891;28;20764;-80
2021/09/04 06:57:10;;;;;;;17.57;10.40;;;15.30;1.00;;;;;;5034955;28;20427;-77
2021/09/04 07:00:10;;;;;;;21.70;11.63;;;15.40;1.00;;;;;;5036164;28;20399;-90
2021/09/04 07:03:10;;;;;;;28.03;14.10;;;15.60;1.00;;;;;;5034904;28;20415;-90
2021/09/04 07:06:10;;;;;;;22.20;12.23;;;15.60;1.00;;;;;;5034310;28;20386;-89
2021/09/04 07:08:52;;;;;;;29.97;13.97;;;15.80;1.00;;;;;;5034640;28;20490;-89
2021/09/04 07:11:22;;;;;;;32.80;12.67;;;16.00;1.00;;;;;;5033905;28;20422;-84
2021/09/04 07:17:11;;;;;;;26.70;11.67;;;;;;;;;;5021568;28;20461;-82
2021/09/04 07:20:04;;;;;;;18.43;11.70;;;16.40;1.00;;;;;;5030874;28;20404;-82
2021/09/04 07:22:34;;;;;;;17.23;10.30;;;16.60;1.00;;;;;;5013955;28;20416;-83
2021/09/04 07:25:16;;;;;;;17.50;9.90;;;16.80;1.00;;;;;;5030099;28;20391;-83
2021/09/04 07:27:44;;;;;;;18.27;10.33;;;16.90;1.00;;;;;;5028408;28;20415;-83
2021/09/04 07:30:10;;;;;;;16.47;10.13;;;17.00;1.00;;;;;;5035311;28;20507;-84
2021/09/04 07:33:10;;;;;;;16.60;10.00;;;17.10;1.00;;;;;;5033271;28;20428;-84
2021/09/04 07:35:41;;;;;;;14.70;9.40;;;;;;;;;;5029711;28;20990;-83
2021/09/04 07:38:10;;;;;;;14.80;8.87;;;17.40;1.00;;;;;;5031088;28;20398;-83
2021/09/04 07:40:36;;;;;;;15.90;9.67;;;17.60;1.00;;;;;;5033078;28;20452;-81
2021/09/04 07:43:07;;;;;;;16.77;8.90;;;17.70;1.00;;;;;;5033360;28;20468;-82
2021/09/04 07:45:52;;;;;;;15.27;9.30;;;17.80;1.00;;;;;;5029242;28;20441;-82
2021/09/04 07:48:18;;;;;;;21.50;9.77;;;17.90;1.00;;;;;;5033200;28;20751;-82
2021/09/04 07:50:58;;;;;;;13.23;8.87;;;18.10;1.00;;;;;;5033598;28;20458;-82
2021/09/04 07:53:34;;;;;;;15.17;10.30;;;18.20;1.00;;;;;;5032987;28;20265;-82
2021/09/04 07:56:11;;;;;;;14.17;8.90;;;;;;;;;;5025425;28;20390;-82
2021/09/04 07:58:40;;;;;;;18.10;9.77;;;18.50;1.00;;;;;;5014697;28;20390;-82
2021/09/04 08:01:34;;;;;;;20.03;9.90;;;18.50;1.00;;;;;;5014848;28;20439;-81
2021/09/04 08:04:13;;;;;;;13.97;9.00;;;18.60;1.00;;;;;;5013426;28;20411;-87
2021/09/04 08:07:10;;;;;;;17.20;9.07;;;18.80;1.00;;;;;;5024924;28;20422;-88
2021/09/04 08:09:46;;;;;;;13.70;8.50;;;18.90;1.00;;;;;;5033533;28;20409;-87
2021/09/04 08:12:16;;;;;;;12.63;8.80;;;18.90;1.00;;;;;;5034033;28;20402;-82
2021/09/04 08:17:47;;;;;;;11.43;6.90;;;19.10;1.00;;;;;;5027056;28;20416;-79
2021/09/04 08:20:28;;;;;;;13.73;7.20;;;19.30;1.00;;;;;;5029922;28;20393;-79
2021/09/04 08:23:07;;;;;;;13.57;8.10;;;19.30;1.00;;;;;;5014121;28;20203;-79
2021/09/04 08:25:34;;;;;;;18.80;7.80;;;19.50;1.00;;;;;;5025925;28;20898;-79
2021/09/04 08:28:00;;;;;;;13.57;8.10;;;19.50;1.00;;;;;;5031709;28;20521;-79
2021/09/04 08:30:25;;;;;;;12.60;7.40;;;19.60;1.00;;;;;;5033455;28;20560;-77
2021/09/04 08:32:51;;;;;;;14.90;8.60;;;;;;;;;;5032927;28;20173;-77
2021/09/04 08:35:17;;;;;;;13.50;7.53;;;19.80;1.00;;;;;;5032864;28;20615;-77
2021/09/04 08:37:43;;;;;;;12.20;7.33;;;;;;;;;;5032797;28;20431;-77
2021/09/04 08:40:10;;;;;;;15.33;8.20;;;20.10;1.00;;;;;;5032926;28;20521;-77
2021/09/04 08:42:36;;;;;;;17.03;8.40;;;20.10;1.00;;;;;;5032869;28;20388;-77
2021/09/04 08:45:02;;;;;;;11.83;7.90;;;20.20;1.00;;;;;;5033155;28;20403;-78
2021/09/04 08:47:35;;;;;;;14.40;8.53;;;20.30;1.00;;;;;;5032437;28;20179;-79
2021/09/04 08:50:05;;;;;;;13.80;7.63;;;20.40;1.00;;;;;;5030635;28;20438;-79
2021/09/04 08:52:35;;;;;;;12.37;7.07;;;20.60;1.00;;;;;;5032056;28;20439;-79
2021/09/04 08:55:04;;;;;;;15.53;7.70;;;20.80;1.00;;;;;;5034968;28;20807;-78
2021/09/04 08:57:30;;;;;;;16.87;8.03;;;20.80;1.00;;;;;;5036871;28;20477;-78
2021/09/04 09:00:29;;;;;;;19.63;7.10;;;20.90;1.00;;;;;;5036561;28;20423;-78
2021/09/04 09:02:56;;;;;;;11.67;7.13;;;21.00;1.00;;;;;;5037602;28;20249;-78
2021/09/04 09:05:42;;;;;;;13.27;7.93;;;21.10;1.00;;;;;;5035782;28;20376;-79
2021/09/04 09:08:34;;;;;;;11.60;6.83;;;21.10;1.00;;;;;;5036417;28;20423;-78
2021/09/04 09:11:02;;;;;;;11.43;7.80;;;;;;;;;;5036925;28;20397;-78
2021/09/04 09:13:29;;;;;;;9.40;7.23;;;21.30;1.00;;;;;;5037085;28;20385;-78
2021/09/04 09:15:56;;;;;;;7.90;6.00;;;21.50;1.00;;;;;;5035474;28;20947;-78
2021/09/04 09:18:27;;;;;;;10.67;7.47;;;21.60;1.00;;;;;;5020086;28;20485;-79
2021/09/04 09:21:05;;;;;;;10.77;7.10;;;21.60;1.00;;;;;;5025495;28;20438;-78
2021/09/04 09:23:35;;;;;;;16.93;6.73;;;;;;;;;;5035644;28;20436;-78
2021/09/04 09:26:10;;;;;;;10.67;7.20;;;21.80;1.00;;;;;;5021759;28;20471;-79
2021/09/04 09:28:37;;;;;;;11.43;5.97;;;22.00;1.00;;;;;;5031899;28;20440;-78
2021/09/04 09:31:11;;;;;;;13.53;6.33;;;;;;;;;;5037710;28;20473;-77
2021/09/04 09:33:41;;;;;;;7.53;5.57;;;;;;;;;;5037241;28;20422;-78
2021/09/04 09:36:06;;;;;;;10.40;7.47;;;22.30;1.00;;;;;;5036909;28;20394;-77
2021/09/04 09:38:34;;;;;;;14.67;7.00;;;22.40;1.00;;;;;;5036992;28;20514;-77
2021/09/04 09:41:07;;;;;;;9.00;6.43;;;;;;;;;;5036795;28;20274;-77
2021/09/04 09:43:40;;;;;;;12.03;6.60;;;22.70;1.00;;;;;;5037005;28;20369;-77
2021/09/04 09:46:07;;;;;;;15.60;6.20;;;22.80;1.00;;;;;;5037128;28;20442;-78
2021/09/04 09:48:42;;;;;;;11.43;6.50;;;22.90;1.00;;;;;;5024690;28;20519;-78
2021/09/04 09:51:14;;;;;;;8.43;6.03;;;;;;;;;;5015992;28;20427;-78
2021/09/04 09:53:42;;;;;;;7.50;5.77;;;23.10;1.00;;;;;;5016642;28;20392;-79
2021/09/04 09:56:22;;;;;;;11.97;7.20;;;23.30;1.00;;;;;;5028341;28;20438;-79
2021/09/04 09:58:58;;;;;;;7.00;5.87;;;23.50;1.00;;;;;;5035245;28;20385;-78
2021/09/04 10:01:41;;;;;;;9.00;5.60;;;23.60;1.00;;;;;;5036753;28;20571;-78
2021/09/04 10:04:11;;;;;;;15.27;5.60;;;23.60;1.00;;;;;;5035889;28;20390;-78
2021/09/04 10:06:41;;;;;;;8.77;6.10;;;23.70;1.00;;;;;;5035400;28;20406;-78
2021/09/04 10:09:12;;;;;;;6.20;5.37;;;23.60;1.00;;;;;;5036041;28;20901;-78
2021/09/04 10:11:38;;;;;;;7.70;5.67;;;23.80;1.00;;;;;;5036360;28;20459;-78
2021/09/04 10:14:05;;;;;;;8.93;5.70;;;23.80;1.00;;;;;;5036325;28;20399;-78
2021/09/04 10:16:33;;;;;;;10.53;6.00;;;23.80;1.00;;;;;;5031487;28;20903;-78
2021/09/04 10:19:00;;;;;;;14.17;5.80;;;23.90;1.00;;;;;;5034517;28;20447;-78
2021/09/04 10:21:27;;;;;;;11.20;5.77;;;24.00;1.00;;;;;;5026586;28;20467;-78
2021/09/04 10:23:54;;;;;;;6.20;5.00;;;24.10;1.00;;;;;;5035962;28;20396;-78
2021/09/04 10:26:32;;;;;;;9.50;5.50;;;24.10;1.00;;;;;;5017988;28;20401;-78
2021/09/04 10:29:03;;;;;;;13.43;6.40;;;24.20;1.00;;;;;;5027525;28;20450;-78
2021/09/04 10:31:45;;;;;;;11.90;5.43;;;24.30;1.00;;;;;;5036393;28;20503;-77
2021/09/04 10:34:32;;;;;;;7.83;5.27;;;24.30;1.00;;;;;;5036243;28;20406;-77
2021/09/04 10:37:42;;;;;;;12.90;5.23;;;24.40;1.00;;;;;;5036018;28;20898;-77
2021/09/04 10:40:12;;;;;;;7.73;5.33;;;24.50;1.00;;;;;;5035711;28;20420;-77
2021/09/04 10:42:47;;;;;;;7.20;5.27;;;24.50;1.00;;;;;;5035722;28;20722;-78
2021/09/04 10:45:17;;;;;;;8.73;5.23;;;24.60;1.00;;;;;;5035922;28;20450;-77
2021/09/04 10:47:47;;;;;;;7.77;5.57;;;24.60;1.00;;;;;;5034625;28;20489;-77
2021/09/04 10:50:33;;;;;;;8.23;5.90;;;24.80;1.00;;;;;;5035247;28;20417;-77
2021/09/04 10:53:39;;;;;;;7.87;6.10;;;24.80;1.00;;;;;;5035697;28;20494;-77
2021/09/04 10:56:30;;;;;;;7.97;5.50;;;24.90;1.00;;;;;;5035711;28;20446;-77
2021/09/04 10:58:56;;;;;;;6.77;5.33;;;25.00;1.00;;;;;;5014624;28;20510;-78
2021/09/04 11:01:40;;;;;;;6.77;5.33;;;25.10;1.00;;;;;;5024229;28;20544;-77
2021/09/04 11:04:10;;;;;;;9.43;5.63;;;25.30;1.00;;;;;;5034820;28;20398;-77
2021/09/04 11:06:36;;;;;;;8.00;4.90;;;25.30;1.00;;;;;;5034033;28;20426;-77
2021/09/04 11:09:04;;;;;;;8.80;5.30;;;25.40;1.00;;;;;;5035332;28;20743;-77
2021/09/04 11:12:24;;;;;;;10.17;5.77;;;25.50;1.00;;;;;;5035150;28;20507;-77
2021/09/04 11:15:24;;;;;;;15.40;5.10;;;25.60;1.00;;;;;;5013246;28;20786;-77
2021/09/04 11:17:58;;;;;;;5.23;4.70;;;25.70;1.00;;;;;;5029736;28;20496;-78
2021/09/04 11:20:55;;;;;;;7.33;5.10;;;25.80;1.00;;;;;;5026193;28;20495;-78
2021/09/04 11:23:29;;;;;;;9.80;5.47;;;25.80;1.00;;;;;;4973702;28;20912;-82
2021/09/04 11:26:02;;;;;;;8.67;5.27;;;26.00;1.00;;;;;;4973797;28;20990;-82
2021/09/04 11:28:33;;;;;;;13.23;5.10;;;26.10;1.00;;;;;;4973845;28;20447;-84
2021/09/04 11:31:49;;;;;;;7.37;5.23;;;26.10;1.00;;;;;;4973558;28;20442;-83
2021/09/04 11:34:41;;;;;;;9.83;4.80;;;26.20;1.00;;;;;;4975008;28;20472;-84
2021/09/04 11:37:35;;;;;;;5.60;4.70;;;26.20;1.00;;;;;;4957380;28;20942;-82
2021/09/04 11:40:34;;;;;;;5.03;4.53;;;26.20;1.00;;;;;;4973601;28;20513;-82
2021/09/04 11:43:05;;;;;;;5.80;5.10;;;26.20;1.00;;;;;;4973638;28;20439;-81
2021/09/04 11:45:40;;;;;;;9.40;5.30;;;26.40;1.00;;;;;;4973497;28;20458;-82
2021/09/04 11:48:12;;;;;;;7.97;4.70;;;26.40;1.00;;;;;;4969220;28;20420;-85
2021/09/04 11:50:38;;;;;;;8.60;5.00;;;26.50;1.00;;;;;;4954420;29;20452;-82
2021/09/04 11:53:13;;;;;;;6.70;5.13;;;26.60;1.00;;;;;;4953643;28;20423;-84
2021/09/04 11:56:10;;;;;;;6.37;4.77;;;26.70;1.00;;;;;;4954287;29;20847;-84
2021/09/04 11:58:40;;;;;;;5.67;4.80;;;26.60;1.00;;;;;;4955693;28;20803;-82
2021/09/04 12:01:10;;;;;;;8.13;4.37;;;26.70;1.00;;;;;;5023141;28;20455;-84
2021/09/04 12:03:37;;;;;;;5.70;4.67;;;;;;;;;;5033986;28;20410;-84
2021/09/04 12:06:08;;;;;;;5.90;4.70;;;26.90;1.00;;;;;;5032993;28;20419;-83
2021/09/04 12:08:42;;;;;;;4.80;4.30;;;27.00;1.00;;;;;;5031768;28;20457;-82
2021/09/04 12:11:11;;;;;;;7.13;4.33;;;27.00;1.00;;;;;;5033613;28;20463;-83
2021/09/04 12:14:22;;;;;;;5.00;4.20;;;27.00;1.00;;;;;;5032897;28;20414;-82
2021/09/04 12:16:50;;;;;;;4.90;3.70;;;27.10;1.00;;;;;;5026769;28;20449;-83
2021/09/04 12:19:37;;;;;;;7.17;4.33;;;27.40;1.00;;;;;;5025044;28;20403;-83
2021/09/04 12:22:10;;;;;;;5.10;3.97;;;27.30;1.00;;;;;;5019113;28;20491;-82
2021/09/04 12:24:41;;;;;;;10.83;4.53;;;27.40;1.00;;;;;;5030779;28;20411;-83
2021/09/04 12:27:11;;;;;;;5.83;4.63;;;27.50;1.00;;;;;;5014184;28;20388;-81
2021/09/04 12:29:41;;;;;;;12.20;4.43;;;27.50;1.00;;;;;;5028240;28;20442;-83
2021/09/04 12:32:12;;;;;;;8.93;4.77;;;27.60;1.00;;;;;;5033797;28;20754;-81
2021/09/04 12:34:40;;;;;;;8.73;4.60;;;27.60;1.00;;;;;;5013779;28;20397;-81
2021/09/04 12:37:40;;;;;;;10.70;4.97;;;27.60;1.00;;;;;;5012651;28;20421;-83
2021/09/04 12:40:12;;;;;;;5.17;4.50;;;27.70;1.00;;;;;;5013894;28;20875;-83
2021/09/04 12:42:57;;;;;;;6.67;4.60;;;27.80;1.00;;;;;;5016795;28;20456;-81
2021/09/04 12:45:35;;;;;;;5.93;4.60;;;27.80;1.00;;;;;;5033438;28;20913;-81
2021/09/04 12:48:00;;;;;;;14.83;4.70;;;27.90;1.00;;;;;;5033810;28;20425;-82
2021/09/04 12:50:28;;;;;;;8.33;4.20;;;27.80;1.00;;;;;;5033248;28;20927;-82
2021/09/04 12:53:10;;;;;;;4.60;4.20;;;27.80;1.00;;;;;;5018565;28;20174;-82
2021/09/04 12:55:58;;;;;;;5.80;4.40;;;27.80;1.00;;;;;;5033413;28;20876;-82
2021/09/04 12:59:02;;;;;;;6.77;4.30;;;27.50;1.00;;;;;;5032636;28;20418;-82
2021/09/04 13:01:28;;;;;;;7.70;4.23;;;27.50;1.00;;;;;;5031161;28;20833;-82
2021/09/04 13:04:08;;;;;;;4.97;4.20;;;27.30;1.00;;;;;;5029431;28;20978;-82
2021/09/04 13:06:41;;;;;;;6.50;4.13;;;27.40;1.00;;;;;;5028497;28;20447;-82
2021/09/04 13:09:06;;;;;;;6.00;4.10;;;27.60;1.00;;;;;;5016060;28;20922;-82
2021/09/04 13:11:34;;;;;;;5.47;4.13;;;27.80;1.00;;;;;;4994554;28;20440;-82
2021/09/04 13:14:00;;;;;;;5.30;4.00;;;27.80;1.00;;;;;;5021841;28;20203;-82
2021/09/04 13:16:29;;;;;;;5.90;4.07;;;27.80;1.00;;;;;;5014464;28;21005;-82
2021/09/04 13:18:59;;;;;;;6.03;3.97;;;27.90;1.00;;;;;;5030828;28;20420;-78
2021/09/04 13:21:34;;;;;;;5.07;4.20;;;27.90;1.00;;;;;;5030991;28;20461;-77
2021/09/04 13:24:05;;;;;;;4.87;3.90;;;27.90;1.00;;;;;;5023702;28;20414;-78
2021/09/04 13:26:41;;;;;;;4.63;4.17;;;28.10;1.00;;;;;;5028717;28;20544;-77
2021/09/04 13:29:06;;;;;;;3.90;3.60;;;28.20;1.00;;;;;;5022779;28;20446;-77
2021/09/04 13:31:35;;;;;;;5.07;4.00;;;28.20;1.00;;;;;;5031049;28;20440;-77
2021/09/04 13:34:17;;;;;;;4.90;4.00;;;28.20;1.00;;;;;;5020346;28;20309;-78
2021/09/04 13:36:48;;;;;;;5.30;3.87;;;28.10;1.00;;;;;;5013484;28;20478;-77
2021/09/04 13:39:13;;;;;;;5.77;4.10;;;28.20;1.00;;;;;;5013639;28;20869;-77
2021/09/04 13:41:41;;;;;;;5.53;4.03;;;28.40;1.00;;;;;;5015586;28;20451;-77
2021/09/04 13:44:46;;;;;;;6.60;4.00;;;28.50;1.00;;;;;;5021781;28;20641;-85
2021/09/04 13:47:34;;;;;;;4.37;3.97;;;28.50;1.00;;;;;;5037175;28;20386;-86
2021/09/04 13:50:05;;;;;;;4.77;3.60;;;28.70;1.00;;;;;;5036163;28;20422;-80
2021/09/04 13:52:32;;;;;;;7.10;4.00;;;28.90;1.00;;;;;;5035196;28;20426;-80
2021/09/04 13:55:16;;;;;;;7.27;3.73;;;28.90;1.00;;;;;;5036016;28;20415;-80
2021/09/04 13:58:10;;;;;;;4.57;3.83;;;28.90;1.00;;;;;;5036420;28;20412;-80
2021/09/04 14:00:40;;;;;;;4.27;3.87;;;29.00;1.00;;;;;;5036242;28;20864;-80
2021/09/04 14:03:34;;;;;;;5.90;4.43;;;28.90;1.00;;;;;;5029739;28;20809;-84
2021/09/04 14:06:11;;;;;;;9.93;3.93;;;28.70;1.00;;;;;;5031752;28;20419;-79